Time;durP1;ratioP1;P1;durP2;ratioP2;P2;SDS_P1;SDS_P2;PMS_P1;PMS_P2;Temp;Humidity;BMP_temperature;BMP_pressure;BME280_temperature;BME280_humidity;BME280_pressure;Samples;Min_cycle;Max_cycle;Signal;HPM_P1;HPM_P2
2024/04/19 00:00:26;;;;;;;5.75;2.28;;;6.90;99.90;;;;;;6472448;22;20020;-85
2024/04/19 00:02:52;;;;;;;4.50;2.67;;;6.90;99.90;;;;;;6511742;22;20006;-85
2024/04/19 00:05:21;;;;;;;5.40;2.70;;;6.90;99.90;;;;;;6512109;22;20433;-85
2024/04/19 00:07:47;;;;;;;6.20;2.33;;;7.90;99.90;;;;;;6471485;22;20072;-86
2024/04/19 00:10:12;;;;;;;3.45;2.58;;;6.90;99.90;;;;;;6467766;22;20751;-86
2024/04/19 00:12:38;;;;;;;6.00;3.05;;;6.90;99.90;;;;;;6471626;22;20002;-85
2024/04/19 00:15:06;;;;;;;6.60;2.85;;;6.90;99.90;;;;;;6472278;22;20006;-85
2024/04/19 00:17:33;;;;;;;5.07;2.95;;;6.90;99.90;;;;;;6471210;22;20030;-86
2024/04/19 00:20:02;;;;;;;4.28;2.70;;;6.90;99.90;;;;;;6469653;22;20005;-85
2024/04/19 00:22:51;;;;;;;4.97;3.03;;;6.90;99.90;;;;;;6469883;22;20006;-85
2024/04/19 00:25:16;;;;;;;6.93;3.20;;;8.00;99.90;;;;;;6512364;22;20369;-85
2024/04/19 00:27:42;;;;;;;6.30;3.28;;;6.80;99.90;;;;;;6511391;22;20018;-85
2024/04/19 00:30:08;;;;;;;5.80;3.38;;;7.30;99.90;;;;;;6468741;22;20084;-85
2024/04/19 00:32:34;;;;;;;7.28;4.10;;;6.90;99.90;;;;;;6469570;22;20009;-85
2024/04/19 00:35:00;;;;;;;4.88;3.30;;;6.90;99.90;;;;;;6472285;22;20501;-85
2024/04/19 00:37:25;;;;;;;6.30;3.85;;;7.20;99.90;;;;;;6469431;22;20002;-85
2024/04/19 00:39:52;;;;;;;7.82;4.07;;;7.00;99.90;;;;;;6469196;22;20149;-85
2024/04/19 00:42:18;;;;;;;5.00;2.97;;;7.00;99.90;;;;;;6513222;22;20032;-85
2024/04/19 00:44:44;;;;;;;4.30;2.90;;;7.00;99.90;;;;;;6512950;22;20006;-85
2024/04/19 00:47:11;;;;;;;5.93;2.42;;;7.00;99.90;;;;;;6471923;22;20002;-85
2024/04/19 00:49:38;;;;;;;4.78;2.25;;;7.00;99.90;;;;;;6471498;22;20433;-85
2024/04/19 00:52:07;;;;;;;7.00;2.92;;;7.10;99.90;;;;;;6469705;22;20006;-86
2024/04/19 00:54:36;;;;;;;3.90;3.05;;;7.00;99.90;;;;;;6469834;22;20016;-85
2024/04/19 00:57:02;;;;;;;6.53;3.05;;;7.20;99.90;;;;;;6512787;22;20005;-85
2024/04/19 00:59:30;;;;;;;5.07;3.05;;;7.00;99.90;;;;;;6470295;22;20024;-86
2024/04/19 01:01:56;;;;;;;6.38;3.55;;;7.00;99.90;;;;;;6468084;22;20653;-85
2024/04/19 01:04:22;;;;;;;8.10;3.42;;;7.10;99.90;;;;;;6470063;22;20005;-85
2024/04/19 01:07:08;;;;;;;;;;;7.10;99.90;;;;;;6469773;22;20002;-86
2024/04/19 01:09:33;;;;;;;5.85;3.60;;;7.00;99.90;;;;;;6510291;21;19922;-85
2024/04/19 01:11:59;;;;;;;5.68;3.70;;;7.00;99.90;;;;;;6470602;22;20391;-85
2024/04/19 01:14:25;;;;;;;9.40;3.92;;;7.00;99.90;;;;;;6510773;22;20006;-85
2024/04/19 01:16:51;;;;;;;7.43;3.58;;;7.10;99.90;;;;;;6471854;22;20053;-85
2024/04/19 01:19:18;;;;;;;6.70;3.42;;;7.10;99.90;;;;;;6511254;21;20006;-85
2024/04/19 01:21:44;;;;;;;7.07;3.72;;;7.10;99.90;;;;;;6511238;22;20016;-85
2024/04/19 01:24:20;;;;;;;6.55;3.85;;;7.30;99.90;;;;;;6512634;22;20006;-85
2024/04/19 01:26:46;;;;;;;7.47;3.47;;;7.10;99.90;;;;;;6471855;22;20385;-85
2024/04/19 01:29:11;;;;;;;7.97;3.75;;;8.00;99.90;;;;;;6468942;22;20005;-85
2024/04/19 01:31:37;;;;;;;6.63;3.22;;;7.10;99.90;;;;;;6514691;22;20093;-85
2024/04/19 01:34:03;;;;;;;3.95;2.60;;;7.60;99.90;;;;;;6474562;22;20005;-85
2024/04/19 01:36:29;;;;;;;6.18;2.13;;;7.20;99.90;;;;;;6470227;22;20006;-85
2024/04/19 01:38:56;;;;;;;7.15;2.50;;;7.70;99.90;;;;;;6513601;21;20006;-85
2024/04/19 01:41:24;;;;;;;6.57;3.60;;;7.30;99.90;;;;;;6512985;22;20429;-85
2024/04/19 01:43:50;;;;;;;8.23;3.55;;;7.20;99.90;;;;;;6472261;22;20449;-85
2024/04/19 01:46:19;;;;;;;4.65;3.03;;;7.20;99.90;;;;;;6514222;22;20017;-85
2024/04/19 01:48:45;;;;;;;5.90;2.92;;;7.20;99.90;;;;;;6513192;22;20006;-85
2024/04/19 01:51:13;;;;;;;8.98;3.47;;;7.30;99.90;;;;;;6513129;22;20105;-86
2024/04/19 01:53:39;;;;;;;4.55;2.40;;;7.70;99.90;;;;;;6513819;22;20027;-85
2024/04/19 01:56:13;;;;;;;3.67;1.73;;;7.30;99.90;;;;;;6471662;22;20018;-85
2024/04/19 01:58:51;;;;;;;4.50;1.60;;;7.30;99.90;;;;;;6510269;22;20043;-85
2024/04/19 02:01:18;;;;;;;4.45;1.17;;;7.40;99.90;;;;;;6470975;22;20002;-85
2024/04/19 02:03:46;;;;;;;3.58;1.08;;;7.40;99.90;;;;;;6474261;22;20712;-85
2024/04/19 02:06:13;;;;;;;3.30;1.10;;;7.30;99.90;;;;;;6514873;22;20002;-85
2024/04/19 02:08:42;;;;;;;2.85;0.90;;;7.60;99.90;;;;;;6470395;22;20413;-85
2024/04/19 02:11:08;;;;;;;4.78;1.55;;;7.40;99.90;;;;;;6513544;22;20046;-85
2024/04/19 02:13:34;;;;;;;1.88;0.90;;;7.70;99.90;;;;;;6472803;22;20001;-85
2024/04/19 02:16:00;;;;;;;2.22;0.90;;;7.40;99.90;;;;;;6471476;22;20042;-85
2024/04/19 02:18:26;;;;;;;4.60;1.02;;;7.50;99.90;;;;;;6514273;22;20010;-85
2024/04/19 02:20:55;;;;;;;2.45;0.93;;;7.60;99.90;;;;;;6473030;22;20006;-85
2024/04/19 02:23:36;;;;;;;2.80;0.90;;;7.90;99.90;;;;;;6471097;22;20029;-85
2024/04/19 02:26:09;;;;;;;2.53;0.60;;;7.50;99.90;;;;;;6471050;22;20005;-85
2024/04/19 02:31:30;;;;;;;2.17;0.85;;;8.20;99.90;;;;;;6471089;22;20009;-85
2024/04/19 02:33:56;;;;;;;3.15;0.70;;;7.80;99.90;;;;;;6470418;22;20438;-86
2024/04/19 02:36:22;;;;;;;2.88;0.70;;;7.50;99.90;;;;;;6472106;22;20006;-85
2024/04/19 02:38:50;;;;;;;1.73;0.70;;;8.50;99.90;;;;;;6472600;22;20021;-85
2024/04/19 02:41:18;;;;;;;1.92;0.63;;;7.60;99.90;;;;;;6471421;22;20708;-86
2024/04/19 02:43:49;;;;;;;5.22;0.70;;;7.80;99.90;;;;;;6472342;22;20002;-85
2024/04/19 02:46:16;;;;;;;2.75;0.70;;;8.50;99.90;;;;;;6513201;22;20006;-85
2024/04/19 02:48:42;;;;;;;1.70;0.90;;;7.70;99.90;;;;;;6469527;22;20014;-85
2024/04/19 02:51:07;;;;;;;1.52;0.50;;;7.80;99.90;;;;;;6512979;22;20098;-85
2024/04/19 02:53:33;;;;;;;4.30;0.60;;;7.80;99.90;;;;;;6513888;22;20014;-85
2024/04/19 02:56:01;;;;;;;4.53;0.85;;;7.80;99.90;;;;;;6472744;22;20006;-85
2024/04/19 02:58:26;;;;;;;2.38;0.88;;;7.80;99.90;;;;;;6473402;22;20009;-86
2024/04/19 03:00:52;;;;;;;1.60;0.50;;;8.70;99.90;;;;;;6513732;21;20073;-85
2024/04/19 03:03:19;;;;;;;1.05;0.57;;;7.80;99.90;;;;;;6513454;22;20034;-85
2024/04/19 03:05:44;;;;;;;1.73;0.50;;;7.80;99.90;;;;;;6513257;22;20020;-85
2024/04/19 03:08:10;;;;;;;1.05;0.60;;;8.10;99.90;;;;;;6470850;22;20014;-86
2024/04/19 03:10:56;;;;;;;1.20;0.88;;;7.80;99.90;;;;;;6470441;22;20489;-85
2024/04/19 03:13:22;;;;;;;4.22;0.65;;;7.80;99.90;;;;;;6513941;22;20084;-85
2024/04/19 03:16:09;;;;;;;2.20;0.68;;;7.90;99.90;;;;;;6470912;22;20385;-85
2024/04/19 03:18:34;;;;;;;1.25;0.60;;;8.00;99.90;;;;;;6513316;22;20313;-85
2024/04/19 03:21:20;;;;;;;1.40;0.68;;;8.00;99.90;;;;;;6471397;22;20017;-85
2024/04/19 03:23:46;;;;;;;3.67;0.70;;;7.90;99.90;;;;;;6513959;22;20690;-86
2024/04/19 03:26:12;;;;;;;1.10;0.70;;;7.90;99.90;;;;;;6472870;22;20005;-86
2024/04/19 03:28:37;;;;;;;2.05;0.70;;;8.00;99.90;;;;;;6513062;22;20298;-86
2024/04/19 03:31:08;;;;;;;1.20;0.80;;;8.40;99.90;;;;;;6514083;22;20617;-85
2024/04/19 03:33:33;;;;;;;0.77;0.77;;;8.50;99.90;;;;;;6472877;22;20017;-85
2024/04/19 03:36:03;;;;;;;1.00;0.75;;;8.10;99.90;;;;;;6513733;22;20002;-86
2024/04/19 03:38:31;;;;;;;0.75;0.70;;;8.00;99.90;;;;;;6469879;22;20074;-86
2024/04/19 03:40:57;;;;;;;1.50;0.90;;;8.10;99.90;;;;;;6471857;22;20005;-86
2024/04/19 03:45:40;;;;;;;0.73;0.60;;;8.10;99.90;;;;;;6505938;22;20334;-86
2024/04/19 03:46:29;;;;;;;1.02;0.60;;;8.20;99.90;;;;;;6472071;22;20381;-86
2024/04/19 03:48:54;;;;;;;2.13;0.57;;;9.10;99.90;;;;;;6512212;22;20005;-86
2024/04/19 03:51:20;;;;;;;1.60;0.45;;;8.20;99.90;;;;;;6471148;22;20013;-86
2024/04/19 03:53:46;;;;;;;4.10;0.60;;;8.20;99.90;;;;;;6471826;22;20079;-86
2024/04/19 03:56:31;;;;;;;5.00;0.55;;;8.30;99.90;;;;;;6435185;22;20049;-86
2024/04/19 03:59:02;;;;;;;2.33;0.80;;;8.80;99.90;;;;;;6471802;22;20017;-86
2024/04/19 04:01:28;;;;;;;5.50;1.08;;;8.40;99.90;;;;;;6510533;22;20500;-86
2024/04/19 04:03:54;;;;;;;4.10;1.08;;;8.40;99.90;;;;;;6469651;22;20016;-86
2024/04/19 04:06:25;;;;;;;5.25;1.30;;;8.40;99.90;;;;;;6471447;22;20332;-86
2024/04/19 04:08:51;;;;;;;6.63;1.40;;;8.50;99.90;;;;;;6471487;22;20022;-86
2024/04/19 04:11:19;;;;;;;6.72;1.73;;;8.50;99.90;;;;;;6469017;22;20014;-86
2024/04/19 04:13:45;;;;;;;8.00;2.10;;;8.50;99.90;;;;;;6471808;22;20016;-85
2024/04/19 04:16:11;;;;;;;9.88;2.85;;;8.70;99.90;;;;;;6471533;22;20002;-85
2024/04/19 04:18:36;;;;;;;8.73;2.38;;;8.60;99.90;;;;;;6472006;22;20017;-85
2024/04/19 04:21:02;;;;;;;9.82;2.40;;;8.60;99.90;;;;;;6471943;22;20322;-86
2024/04/19 04:23:30;;;;;;;10.60;2.40;;;8.60;99.90;;;;;;6512837;22;20002;-86
2024/04/19 04:25:55;;;;;;;7.30;2.65;;;8.70;99.90;;;;;;6472061;22;20006;-86
2024/04/19 04:28:22;;;;;;;7.03;1.88;;;8.70;99.90;;;;;;6472554;22;20546;-86
2024/04/19 04:30:47;;;;;;;5.30;1.60;;;8.70;99.90;;;;;;6512285;21;20006;-86
2024/04/19 04:33:13;;;;;;;5.78;1.60;;;8.80;99.90;;;;;;6471716;22;20541;-86
2024/04/19 04:35:39;;;;;;;6.25;1.80;;;9.70;99.90;;;;;;6472463;22;20397;-86
2024/04/19 04:38:06;;;;;;;9.35;1.52;;;8.70;99.90;;;;;;6512589;22;20320;-86
2024/04/19 04:40:32;;;;;;;4.28;1.13;;;8.80;99.90;;;;;;6468615;22;20058;-86
2024/04/19 04:42:58;;;;;;;7.70;0.90;;;9.50;99.90;;;;;;6471160;22;20018;-87
2024/04/19 04:45:24;;;;;;;7.35;1.13;;;8.80;99.90;;;;;;6471026;22;20335;-86
2024/04/19 04:47:59;;;;;;;10.52;1.67;;;8.70;99.90;;;;;;6471715;22;20083;-87
2024/04/19 04:50:30;;;;;;;8.40;1.60;;;8.90;99.90;;;;;;6510734;21;20005;-87
2024/04/19 04:53:01;;;;;;;7.35;1.50;;;8.80;99.90;;;;;;6471052;22;20018;-87
2024/04/19 04:55:30;;;;;;;10.80;1.38;;;8.80;99.90;;;;;;6471328;22;20010;-86
2024/04/19 04:57:56;;;;;;;9.70;1.63;;;9.40;99.90;;;;;;6511658;22;20364;-86
2024/04/19 05:00:22;;;;;;;9.90;2.55;;;8.80;99.90;;;;;;6513584;21;20022;-86
2024/04/19 05:02:47;;;;;;;11.50;2.25;;;9.00;99.90;;;;;;6473037;22;20306;-86
2024/04/19 05:05:14;;;;;;;11.07;2.00;;;9.40;99.90;;;;;;6514102;22;19998;-87
2024/04/19 05:07:40;;;;;;;16.75;2.70;;;9.00;99.90;;;;;;6471462;22;20017;-86
2024/04/19 05:10:06;;;;;;;8.10;2.22;;;8.90;99.90;;;;;;6473899;22;20017;-86
2024/04/19 05:12:50;;;;;;;11.73;2.60;;;8.90;99.90;;;;;;6473947;22;20026;-85
2024/04/19 05:15:18;;;;;;;11.25;2.40;;;8.90;99.90;;;;;;6469352;22;20005;-87
2024/04/19 05:17:46;;;;;;;15.93;2.28;;;8.80;99.90;;;;;;6471117;22;20010;-87
2024/04/19 05:20:24;;;;;;;11.68;2.13;;;8.90;99.90;;;;;;6510448;21;20072;-87
2024/04/19 05:22:53;;;;;;;15.10;2.25;;;9.00;99.90;;;;;;6472489;22;20294;-85
2024/04/19 05:25:21;;;;;;;15.02;2.67;;;8.90;99.90;;;;;;6512728;22;20521;-84
2024/04/19 05:27:49;;;;;;;12.15;2.50;;;8.90;99.90;;;;;;6513044;22;20021;-85
2024/04/19 05:33:28;;;;;;;16.50;2.28;;;9.00;99.90;;;;;;6470916;21;20037;-87
2024/04/19 05:36:34;;;;;;;15.65;2.58;;;9.00;99.90;;;;;;6432511;22;20006;-85
2024/04/19 05:39:23;;;;;;;14.45;2.40;;;9.00;99.90;;;;;;6454110;22;19998;-86
2024/04/19 05:42:44;;;;;;;15.40;2.33;;;9.10;99.90;;;;;;6429201;22;20002;-86
2024/04/19 05:50:30;;;;;;;19.27;3.05;;;9.20;99.90;;;;;;6332877;22;20023;-85
2024/04/19 05:53:40;;;;;;;17.85;2.72;;;9.90;99.90;;;;;;6347580;22;20010;-84
2024/04/19 05:56:06;;;;;;;14.98;2.78;;;8.80;99.90;;;;;;6369692;22;20023;-85
2024/04/19 05:59:23;;;;;;;15.77;2.50;;;9.20;99.90;;;;;;6328423;22;20485;-87
2024/04/19 07:18:39;;;;;;;14.23;3.40;;;10.20;99.90;;;;;;6522130;22;20008;-85
2024/04/19 07:48:40;;;;;;;10.98;1.92;;;10.50;99.90;;;;;;6516056;21;20029;-86
2024/04/19 07:51:09;;;;;;;11.82;2.45;;;10.60;99.90;;;;;;6423056;22;20700;-85
2024/04/19 07:54:00;;;;;;;7.88;1.27;;;10.50;99.90;;;;;;6466792;22;20013;-85
2024/04/19 07:56:46;;;;;;;;;;;;;;;;;;;;;
2024/04/19 07:59:25;;;;;;;7.75;1.90;;;10.60;99.90;;;;;;6429319;22;20022;-84
2024/04/19 08:01:56;;;;;;;7.18;1.10;;;10.90;99.90;;;;;;6425737;22;20381;-84
2024/04/19 08:04:27;;;;;;;7.05;0.95;;;10.70;99.90;;;;;;6424323;22;20006;-84
2024/04/19 08:07:23;;;;;;;9.90;1.50;;;9.90;99.90;;;;;;6468341;22;20142;-84
2024/04/19 08:09:59;;;;;;;12.32;1.23;;;10.60;99.90;;;;;;6426886;22;20006;-83
2024/04/19 08:13:24;;;;;;;11.38;1.38;;;10.70;99.90;;;;;;6382816;22;20006;-84
2024/04/19 08:16:35;;;;;;;8.88;1.85;;;10.30;99.90;;;;;;6321484;22;20000;-84
2024/04/19 09:36:47;;;;;;;3.42;0.80;;;11.50;99.90;;;;;;6414734;22;20002;-85
2024/04/19 09:39:39;;;;;;;7.60;0.93;;;11.60;99.90;;;;;;6420987;22;20018;-86
2024/04/19 09:42:12;;;;;;;4.45;0.98;;;11.10;99.90;;;;;;6418709;22;20002;-85
2024/04/19 09:44:53;;;;;;;4.13;0.60;;;11.10;99.90;;;;;;6414029;22;19998;-85
2024/04/19 09:47:35;;;;;;;3.97;0.52;;;9.80;99.90;;;;;;6419304;22;20041;-86
2024/04/19 09:50:05;;;;;;;3.15;0.82;;;10.70;99.90;;;;;;6420548;22;19994;-85
2024/04/19 09:52:35;;;;;;;3.28;0.90;;;10.60;99.90;;;;;;6418431;22;20489;-88
2024/04/19 09:55:08;;;;;;;3.88;0.50;;;10.60;99.90;;;;;;6420780;22;20007;-87
2024/04/19 09:57:35;;;;;;;2.67;0.63;;;10.60;99.90;;;;;;6460186;22;20099;-86
2024/04/19 10:00:07;;;;;;;5.88;1.10;;;10.60;99.90;;;;;;6414673;22;20453;-87
2024/04/19 10:02:38;;;;;;;3.20;0.43;;;10.70;99.90;;;;;;6420754;22;20007;-87
2024/04/19 10:05:05;;;;;;;7.20;0.88;;;11.00;99.90;;;;;;6419994;22;20215;-86
2024/04/19 10:07:32;;;;;;;2.22;0.40;;;10.70;99.90;;;;;;6419895;22;20034;-87
2024/04/19 10:09:59;;;;;;;3.17;0.50;;;10.70;99.90;;;;;;6420600;22;20006;-87
2024/04/19 10:12:24;;;;;;;5.35;0.90;;;10.70;99.90;;;;;;6417359;22;20013;-84
2024/04/19 10:14:51;;;;;;;4.88;0.28;;;10.70;99.90;;;;;;6415925;22;20006;-86
2024/04/19 10:17:17;;;;;;;10.20;1.20;;;10.70;99.90;;;;;;6419657;22;20018;-87
2024/04/19 10:19:45;;;;;;;2.42;0.57;;;10.60;99.90;;;;;;6418289;22;20630;-87
2024/04/19 10:22:24;;;;;;;3.20;0.47;;;10.60;99.90;;;;;;6421114;22;20493;-86
2024/04/19 10:25:02;;;;;;;2.03;0.35;;;10.60;99.90;;;;;;6420801;22;20332;-86
2024/04/19 10:27:34;;;;;;;2.93;0.30;;;10.60;99.90;;;;;;6418863;22;20018;-86
2024/04/19 10:30:04;;;;;;;1.95;0.22;;;10.90;99.90;;;;;;6414794;22;20287;-86
2024/04/19 10:32:30;;;;;;;1.05;0.22;;;10.50;99.90;;;;;;6420104;22;20013;-85
2024/04/19 10:34:59;;;;;;;1.58;0.25;;;11.00;99.90;;;;;;6420975;22;20766;-86
2024/04/19 10:37:25;;;;;;;2.35;0.55;;;10.30;99.90;;;;;;6417861;22;20018;-86
2024/04/19 10:39:53;;;;;;;1.20;0.20;;;11.70;99.90;;;;;;6419609;22;20017;-86
2024/04/19 10:42:25;;;;;;;1.75;0.20;;;10.10;99.90;;;;;;6419461;22;20059;-87
2024/04/19 10:44:51;;;;;;;1.95;0.30;;;10.70;99.90;;;;;;6419434;22;20007;-86
2024/04/19 10:47:20;;;;;;;3.45;0.20;;;9.70;99.90;;;;;;6416323;22;20006;-86
2024/04/19 10:49:47;;;;;;;3.42;0.50;;;9.60;99.90;;;;;;6416289;22;20003;-85
2024/04/19 10:52:32;;;;;;;1.10;0.30;;;9.50;99.90;;;;;;6418151;22;20008;-85
2024/04/19 10:54:58;;;;;;;2.40;0.65;;;10.10;99.90;;;;;;6416143;22;20041;-85
2024/04/19 10:57:24;;;;;;;3.75;0.88;;;9.30;99.90;;;;;;6417106;22;20629;-85
2024/04/19 10:59:49;;;;;;;0.65;0.20;;;9.20;99.90;;;;;;6412332;22;20003;-86
2024/04/19 11:02:18;;;;;;;4.07;0.73;;;9.10;99.90;;;;;;6414638;22;20014;-86
2024/04/19 11:04:44;;;;;;;2.70;0.30;;;9.10;99.90;;;;;;6415240;22;20516;-85
2024/04/19 11:07:10;;;;;;;2.78;0.30;;;9.10;99.90;;;;;;6416503;22;20034;-85
2024/04/19 11:09:35;;;;;;;4.32;0.40;;;9.10;99.90;;;;;;6416688;22;20014;-85
2024/04/19 11:12:02;;;;;;;3.00;0.20;;;9.10;99.90;;;;;;6416385;22;20051;-84
2024/04/19 11:14:28;;;;;;;4.13;0.50;;;9.20;99.90;;;;;;6417999;22;20014;-85
2024/04/19 11:17:14;;;;;;;3.60;0.57;;;9.30;99.90;;;;;;6414765;22;20444;-85
2024/04/19 11:19:40;;;;;;;3.25;0.93;;;9.40;99.90;;;;;;6417175;22;20014;-85
2024/04/19 11:22:09;;;;;;;5.85;0.80;;;9.60;99.90;;;;;;6416672;22;20006;-85
2024/04/19 11:24:39;;;;;;;5.10;0.85;;;9.90;99.90;;;;;;6417213;22;20006;-86
2024/04/19 11:27:06;;;;;;;3.67;0.60;;;10.20;99.90;;;;;;6419197;22;20016;-85
2024/04/19 11:29:32;;;;;;;5.32;0.70;;;10.40;99.90;;;;;;6415049;22;20017;-85
2024/04/19 11:32:04;;;;;;;5.53;0.80;;;10.40;99.90;;;;;;6415207;22;20263;-85
2024/04/19 11:34:31;;;;;;;5.32;1.00;;;10.30;99.90;;;;;;6417326;22;20021;-85
2024/04/19 11:37:06;;;;;;;3.58;0.98;;;10.30;99.90;;;;;;6417193;22;20015;-86
2024/04/19 11:39:34;;;;;;;7.20;0.95;;;10.20;99.90;;;;;;6416233;22;20014;-85
2024/04/19 11:42:00;;;;;;;3.53;1.00;;;10.40;99.90;;;;;;6375404;22;20017;-86
2024/04/19 11:44:27;;;;;;;6.00;1.38;;;10.00;99.90;;;;;;6416381;22;19999;-85
2024/04/19 11:47:01;;;;;;;6.50;0.82;;;10.20;99.90;;;;;;6414494;22;20077;-84
2024/04/19 11:49:33;;;;;;;5.38;0.95;;;10.40;99.90;;;;;;6416035;22;20014;-83
2024/04/19 11:52:08;;;;;;;4.00;0.88;;;10.70;99.90;;;;;;6416939;22;20013;-83
2024/04/19 11:54:37;;;;;;;10.97;1.70;;;11.40;99.90;;;;;;6417238;22;20339;-84
2024/04/19 11:57:06;;;;;;;8.10;1.90;;;11.20;99.90;;;;;;6419690;22;20547;-84
2024/04/19 11:59:39;;;;;;;7.97;2.10;;;11.30;99.90;;;;;;6415287;22;20160;-83
2024/04/19 12:02:22;;;;;;;10.20;2.38;;;11.40;99.90;;;;;;6415675;22;20041;-84
2024/04/19 12:04:48;;;;;;;7.57;1.52;;;11.50;99.90;;;;;;6417105;22;20006;-83
2024/04/19 12:07:15;;;;;;;6.75;1.70;;;11.70;99.90;;;;;;6418461;22;20006;-84
2024/04/19 12:09:41;;;;;;;11.07;3.17;;;11.80;99.90;;;;;;6419408;22;20035;-81
2024/04/19 12:12:09;;;;;;;12.07;2.55;;;12.10;99.90;;;;;;6419141;22;20007;-81
2024/04/19 12:14:35;;;;;;;10.32;2.35;;;12.10;99.90;;;;;;6417578;22;20010;-81
2024/04/19 12:17:03;;;;;;;7.72;2.00;;;12.00;99.90;;;;;;6416118;22;20007;-81
2024/04/19 12:19:30;;;;;;;8.52;1.98;;;11.60;99.90;;;;;;6416261;22;20434;-81
2024/04/19 12:21:56;;;;;;;7.13;2.20;;;11.00;99.90;;;;;;6416447;22;20018;-82
2024/04/19 12:24:22;;;;;;;11.43;2.22;;;10.80;99.90;;;;;;6419254;22;20498;-82
2024/04/19 12:26:47;;;;;;;9.15;2.35;;;10.80;99.90;;;;;;6419564;22;19999;-81
2024/04/19 12:29:13;;;;;;;11.73;2.55;;;10.90;99.90;;;;;;6414957;22;20006;-81
2024/04/19 12:31:39;;;;;;;13.27;2.65;;;11.00;99.90;;;;;;6415189;22;20462;-82
2024/04/19 12:34:06;;;;;;;12.60;2.50;;;11.20;99.90;;;;;;6417942;22;20006;-82
2024/04/19 12:36:32;;;;;;;9.32;2.22;;;11.60;99.90;;;;;;6418378;22;20006;-81
2024/04/19 12:39:19;;;;;;;12.25;2.28;;;11.80;99.90;;;;;;6416912;22;20082;-85
2024/04/19 12:49:27;;;;;;;10.52;2.35;;;12.40;99.90;;;;;;6366190;22;20024;-83
2024/04/19 12:52:25;;;;;;;10.63;2.03;;;12.10;99.90;;;;;;6325974;22;20386;-84
2024/04/19 12:55:58;;;;;;;11.18;1.77;;;11.70;99.90;;;;;;6325979;22;20133;-86
2024/04/19 13:06:33;;;;;;;7.10;1.17;;;12.70;99.90;;;;;;6228153;22;20004;-85
2024/04/19 13:10:03;;;;;;;9.25;1.85;;;12.30;99.90;;;;;;6339973;22;20010;-86
2024/04/19 13:12:45;;;;;;;9.27;2.13;;;12.40;99.90;;;;;;6312006;22;20002;-85
2024/04/19 13:15:39;;;;;;;8.50;1.77;;;12.50;99.90;;;;;;6414885;22;20670;-84
